Time;durP1;ratioP1;P1;durP2;ratioP2;P2;SDS_P1;SDS_P2;PMS_P1;PMS_P2;Temp;Humidity;BMP_temperature;BMP_pressure;BME280_temperature;BME280_humidity;BME280_pressure;Samples;Min_cycle;Max_cycle;Signal;HPM_P1;HPM_P2
2023/11/07 00:00:27;;;;;;;4.55;1.90;;;9.50;94.50;;;;;;2603723;54;20034;31
2023/11/07 00:03:03;;;;;;;6.83;3.03;;;9.50;94.70;;;;;;2603389;54;20054;31
2023/11/07 00:05:38;;;;;;;4.65;1.80;;;9.50;94.70;;;;;;2603556;54;20900;31
2023/11/07 00:08:16;;;;;;;4.45;1.38;;;9.50;94.90;;;;;;2603271;54;20933;31
2023/11/07 00:10:50;;;;;;;5.80;1.90;;;9.40;94.90;;;;;;2603408;54;20803;31
2023/11/07 00:13:25;;;;;;;6.30;1.98;;;9.40;95.40;;;;;;2764754;31;20038;31
2023/11/07 00:16:00;;;;;;;5.82;3.45;;;9.40;95.80;;;;;;2603354;54;20911;31
2023/11/07 00:18:35;;;;;;;8.25;5.85;;;9.30;95.60;;;;;;2603229;54;20042;31
2023/11/07 00:21:23;;;;;;;4.60;2.25;;;9.30;96.30;;;;;;2603450;54;20054;31
2023/11/07 00:24:01;;;;;;;4.22;1.67;;;9.30;96.50;;;;;;2621664;46;20034;31
2023/11/07 00:26:36;;;;;;;2.72;1.10;;;9.30;96.50;;;;;;2603153;54;20046;31
2023/11/07 00:29:11;;;;;;;2.97;1.63;;;9.30;97.20;;;;;;2603415;54;20905;31
2023/11/07 00:31:46;;;;;;;4.70;1.35;;;9.30;97.30;;;;;;2603212;54;20912;31
2023/11/07 00:34:21;;;;;;;2.95;1.08;;;9.30;97.60;;;;;;2603348;54;20898;31
2023/11/07 00:36:56;;;;;;;3.17;1.25;;;9.20;97.80;;;;;;2702010;39;20505;31
2023/11/07 00:39:34;;;;;;;4.03;1.48;;;9.20;98.50;;;;;;2603231;54;20038;31
2023/11/07 00:42:09;;;;;;;8.10;5.53;;;9.30;99.00;;;;;;2773376;31;20537;31
2023/11/07 00:44:44;;;;;;;3.87;1.90;;;9.30;98.90;;;;;;2603235;54;20102;31
2023/11/07 00:47:18;;;;;;;6.82;3.15;;;9.30;99.20;;;;;;2603359;54;20089;31
2023/11/07 00:49:53;;;;;;;4.60;2.92;;;9.30;99.50;;;;;;2603117;54;20046;31
2023/11/07 00:52:28;;;;;;;5.35;1.75;;;9.40;99.70;;;;;;2621875;46;20581;31
2023/11/07 00:55:07;;;;;;;3.50;1.85;;;9.40;99.40;;;;;;2603225;54;20971;31
2023/11/07 00:57:42;;;;;;;3.85;1.40;;;9.40;98.70;;;;;;2701559;39;21448;31
2023/11/07 01:00:19;;;;;;;4.95;1.92;;;9.40;99.10;;;;;;2621967;46;20034;31
2023/11/07 01:02:54;;;;;;;3.15;1.40;;;9.50;99.10;;;;;;2603318;54;20101;31
2023/11/07 01:05:29;;;;;;;3.23;1.00;;;9.50;99.10;;;;;;2603202;54;20034;31
2023/11/07 01:08:07;;;;;;;5.68;3.70;;;9.50;98.60;;;;;;2603276;54;20022;31
2023/11/07 01:10:44;;;;;;;2.33;1.20;;;9.60;98.70;;;;;;2621761;46;20038;31
2023/11/07 01:13:19;;;;;;;16.35;8.70;;;9.50;98.40;;;;;;2603317;54;20035;31
2023/11/07 01:15:54;;;;;;;4.03;1.67;;;9.50;98.20;;;;;;2603074;54;20053;31
2023/11/07 01:18:31;;;;;;;7.13;4.22;;;9.60;98.70;;;;;;2621595;46;20023;31
2023/11/07 01:21:06;;;;;;;4.68;2.72;;;9.60;98.10;;;;;;2621568;46;20026;31
2023/11/07 01:23:40;;;;;;;4.57;2.88;;;9.60;98.30;;;;;;2621436;46;21863;31
2023/11/07 01:26:17;;;;;;;3.75;2.00;;;9.70;98.00;;;;;;2621845;46;20030;31
2023/11/07 01:28:52;;;;;;;7.07;1.13;;;9.70;98.20;;;;;;2602858;54;20968;31
2023/11/07 01:31:26;;;;;;;2.80;1.20;;;9.70;98.60;;;;;;2603137;54;21397;31
2023/11/07 01:34:00;;;;;;;1.45;0.80;;;9.70;98.20;;;;;;2621446;47;20094;31
2023/11/07 01:36:35;;;;;;;3.58;1.15;;;9.80;98.40;;;;;;2720248;39;20447;31
2023/11/07 01:39:09;;;;;;;1.52;0.90;;;9.80;98.30;;;;;;2603632;54;20675;31
2023/11/07 01:41:47;;;;;;;3.17;0.82;;;9.80;98.90;;;;;;2603771;54;20042;31
2023/11/07 01:44:22;;;;;;;3.30;0.82;;;9.80;99.90;;;;;;2603798;54;19935;31
2023/11/07 01:46:56;;;;;;;2.47;0.80;;;9.90;99.90;;;;;;2622033;46;20910;31
2023/11/07 01:49:31;;;;;;;2.88;0.88;;;9.90;99.90;;;;;;2603859;54;20081;31
2023/11/07 01:52:05;;;;;;;2.90;0.90;;;9.90;99.90;;;;;;2622453;46;20030;31
2023/11/07 01:54:40;;;;;;;5.10;1.00;;;9.90;99.90;;;;;;2622559;46;19984;31
2023/11/07 01:57:17;;;;;;;4.17;0.83;;;9.90;99.90;;;;;;2622109;46;20596;31
2023/11/07 01:59:52;;;;;;;2.67;0.90;;;9.90;99.90;;;;;;2603683;54;20332;31
2023/11/07 02:02:27;;;;;;;4.15;0.80;;;10.00;99.90;;;;;;2603871;54;20038;31
2023/11/07 02:05:02;;;;;;;4.25;1.10;;;10.00;99.90;;;;;;2622638;46;20824;31
2023/11/07 02:07:37;;;;;;;2.60;1.17;;;10.00;99.90;;;;;;2604038;54;20036;31
2023/11/07 02:10:12;;;;;;;2.63;0.90;;;10.00;99.90;;;;;;2622242;46;20242;31
2023/11/07 02:12:49;;;;;;;4.10;1.00;;;10.00;99.90;;;;;;2603559;54;20000;31
2023/11/07 02:15:26;;;;;;;2.70;1.05;;;10.10;99.90;;;;;;2622644;46;20815;31
2023/11/07 02:18:01;;;;;;;1.65;0.80;;;10.10;99.90;;;;;;2621847;46;20882;31
2023/11/07 02:20:38;;;;;;;4.80;1.20;;;10.10;99.90;;;;;;2622689;46;20026;31
2023/11/07 02:23:21;;;;;;;3.15;1.35;;;10.10;99.90;;;;;;2603816;54;20058;31
2023/11/07 02:25:55;;;;;;;2.97;1.00;;;10.20;99.90;;;;;;2622056;46;20824;31
2023/11/07 02:28:31;;;;;;;2.25;1.05;;;10.20;99.90;;;;;;2603647;54;20085;31
2023/11/07 02:31:07;;;;;;;2.42;1.00;;;10.20;99.90;;;;;;2603717;54;20081;31
2023/11/07 02:33:41;;;;;;;2.20;0.98;;;10.20;99.90;;;;;;2603768;54;20081;31
2023/11/07 02:36:16;;;;;;;1.73;1.00;;;10.20;99.90;;;;;;2603637;54;19934;31
2023/11/07 02:38:54;;;;;;;2.63;1.02;;;10.20;99.90;;;;;;2603675;54;20030;31
2023/11/07 02:41:30;;;;;;;2.97;1.20;;;10.20;99.90;;;;;;2603801;54;20049;31
2023/11/07 02:44:04;;;;;;;2.63;0.75;;;10.20;99.90;;;;;;2603767;54;20057;31
2023/11/07 02:46:38;;;;;;;4.05;0.95;;;10.20;99.90;;;;;;2622516;46;20026;31
2023/11/07 02:49:13;;;;;;;2.30;0.85;;;10.20;99.90;;;;;;2603459;54;20581;31
2023/11/07 02:51:48;;;;;;;3.40;1.07;;;10.30;99.90;;;;;;2603721;54;20030;31
2023/11/07 02:54:26;;;;;;;2.40;1.00;;;10.30;99.90;;;;;;2603556;54;20081;31
2023/11/07 02:57:01;;;;;;;4.50;0.70;;;10.30;99.90;;;;;;2603546;54;20043;31
2023/11/07 02:59:36;;;;;;;1.23;0.60;;;10.30;99.90;;;;;;2622473;46;20051;31
2023/11/07 03:02:11;;;;;;;1.92;0.68;;;10.30;99.90;;;;;;2603551;54;20930;31
2023/11/07 03:04:45;;;;;;;2.65;0.90;;;10.30;99.90;;;;;;2603527;54;20860;31
2023/11/07 03:07:20;;;;;;;3.85;1.40;;;10.30;99.90;;;;;;2622477;46;20881;31
2023/11/07 03:09:57;;;;;;;4.10;0.93;;;10.30;99.90;;;;;;2603485;54;20054;31
2023/11/07 03:12:32;;;;;;;2.22;0.90;;;10.30;99.90;;;;;;2603443;54;20104;31
2023/11/07 03:15:07;;;;;;;5.30;1.00;;;10.30;99.90;;;;;;2603476;54;20097;31
2023/11/07 03:17:42;;;;;;;1.88;0.70;;;10.30;99.90;;;;;;2603513;54;20033;31
2023/11/07 03:20:17;;;;;;;2.77;1.00;;;10.20;99.90;;;;;;2603394;54;20038;31
2023/11/07 03:22:52;;;;;;;2.30;0.88;;;10.30;99.90;;;;;;2702129;39;20489;31
2023/11/07 03:25:29;;;;;;;1.40;0.70;;;10.30;99.90;;;;;;2603633;54;20573;31
2023/11/07 03:28:03;;;;;;;1.92;0.80;;;10.20;99.90;;;;;;2603610;54;20909;31
2023/11/07 03:30:37;;;;;;;2.55;0.90;;;10.20;99.90;;;;;;2621770;46;20918;31
2023/11/07 03:33:11;;;;;;;1.57;0.83;;;10.20;99.90;;;;;;2621979;46;20033;31
2023/11/07 03:35:46;;;;;;;2.85;0.90;;;10.20;99.90;;;;;;2621993;46;20570;31
2023/11/07 03:38:21;;;;;;;3.63;1.08;;;10.10;99.90;;;;;;2603438;54;20907;31
2023/11/07 03:40:59;;;;;;;2.75;1.00;;;10.10;99.90;;;;;;2622080;46;20769;31
2023/11/07 03:43:34;;;;;;;2.97;1.05;;;10.00;99.90;;;;;;2603320;54;20852;31
2023/11/07 03:46:09;;;;;;;2.22;0.50;;;10.00;99.90;;;;;;2603526;54;20853;31
2023/11/07 03:48:44;;;;;;;2.53;0.93;;;10.00;99.90;;;;;;2603527;54;20026;31
2023/11/07 03:51:18;;;;;;;3.17;1.00;;;9.90;99.90;;;;;;2622328;46;21226;31
2023/11/07 03:53:53;;;;;;;1.70;0.95;;;9.90;99.90;;;;;;2603312;54;20030;31
2023/11/07 03:56:31;;;;;;;2.53;1.05;;;9.80;99.90;;;;;;2701748;39;20474;31
2023/11/07 03:59:05;;;;;;;2.17;1.20;;;9.80;99.90;;;;;;2603332;54;20030;31
2023/11/07 04:01:40;;;;;;;1.25;0.60;;;9.80;99.90;;;;;;2603327;54;20054;31
2023/11/07 04:04:18;;;;;;;3.70;0.70;;;9.70;99.90;;;;;;2622062;46;20026;31
2023/11/07 04:06:52;;;;;;;2.63;0.95;;;9.70;99.90;;;;;;2622116;46;20864;31
2023/11/07 04:09:26;;;;;;;2.27;0.77;;;9.60;99.90;;;;;;2603457;54;20157;31
2023/11/07 04:12:04;;;;;;;1.40;0.80;;;9.60;99.90;;;;;;2603318;54;21076;31
2023/11/07 04:14:38;;;;;;;2.53;1.10;;;9.50;99.90;;;;;;2603463;54;20933;31
2023/11/07 04:17:12;;;;;;;2.75;1.00;;;9.50;99.90;;;;;;2621706;46;20896;31
2023/11/07 04:19:47;;;;;;;2.65;0.90;;;9.40;99.90;;;;;;2603267;54;20908;31
2023/11/07 04:22:21;;;;;;;2.50;0.75;;;9.40;99.90;;;;;;2603354;54;20910;31
2023/11/07 04:24:55;;;;;;;2.70;0.85;;;9.30;99.90;;;;;;2603239;54;21081;31
2023/11/07 04:27:34;;;;;;;2.00;1.00;;;9.30;99.90;;;;;;2621394;46;20755;31
2023/11/07 04:30:10;;;;;;;2.78;0.98;;;9.30;99.90;;;;;;2701581;39;20477;31
2023/11/07 04:32:45;;;;;;;;;;;9.20;99.90;;;;;;2622253;46;20031;31
2023/11/07 04:35:19;;;;;;;3.95;1.10;;;9.20;99.90;;;;;;2720346;39;20379;31
2023/11/07 04:37:55;;;;;;;4.45;0.80;;;9.20;99.90;;;;;;2603457;54;20022;31
2023/11/07 04:40:29;;;;;;;2.85;0.80;;;9.10;99.90;;;;;;2701811;39;20550;31
2023/11/07 04:43:07;;;;;;;1.75;0.80;;;9.10;99.90;;;;;;2603285;54;20983;31
2023/11/07 04:45:43;;;;;;;3.20;0.80;;;9.10;99.90;;;;;;2621784;46;20565;31
2023/11/07 04:48:19;;;;;;;2.60;0.90;;;9.00;99.90;;;;;;2603375;54;20877;31
2023/11/07 04:50:54;;;;;;;2.03;0.68;;;9.00;99.90;;;;;;2622069;46;20258;31
2023/11/07 04:53:30;;;;;;;1.57;1.03;;;9.00;99.90;;;;;;2701775;39;20469;31
2023/11/07 04:56:04;;;;;;;2.80;0.90;;;8.90;99.90;;;;;;2621364;46;20864;31
2023/11/07 04:58:42;;;;;;;2.97;1.30;;;8.90;99.90;;;;;;2603178;54;20941;31
2023/11/07 05:01:31;;;;;;;1.60;0.85;;;8.90;99.90;;;;;;2603135;54;20056;31
2023/11/07 05:04:07;;;;;;;1.88;0.98;;;8.80;99.90;;;;;;2603311;54;20906;31
2023/11/07 05:06:41;;;;;;;2.05;1.00;;;8.80;99.90;;;;;;2701675;39;20493;31
2023/11/07 05:09:17;;;;;;;1.25;0.88;;;8.70;99.90;;;;;;2603072;54;20048;31
2023/11/07 05:11:51;;;;;;;3.65;1.17;;;;;;;;;;2603041;54;20027;31
2023/11/07 05:14:32;;;;;;;2.45;1.23;;;8.70;99.90;;;;;;2603141;54;20837;31
2023/11/07 05:17:07;;;;;;;4.45;1.30;;;8.60;99.90;;;;;;2621361;46;20873;31
2023/11/07 05:19:42;;;;;;;2.72;2.00;;;8.70;99.90;;;;;;2603046;54;20085;31
2023/11/07 05:22:17;;;;;;;2.20;1.05;;;8.60;99.90;;;;;;2603041;54;20097;31
2023/11/07 05:24:52;;;;;;;2.80;1.50;;;8.60;99.90;;;;;;2603133;54;21010;31
2023/11/07 05:27:27;;;;;;;4.85;1.40;;;8.60;99.90;;;;;;2603126;54;20166;31
2023/11/07 05:30:05;;;;;;;1.43;1.13;;;8.60;99.90;;;;;;2603037;54;20785;31
2023/11/07 05:32:39;;;;;;;2.15;1.40;;;8.60;99.90;;;;;;2603096;54;20836;31
2023/11/07 05:35:14;;;;;;;2.28;1.38;;;8.60;99.90;;;;;;2603086;54;20030;31
2023/11/07 05:37:49;;;;;;;2.55;1.10;;;8.60;99.90;;;;;;2621462;47;20036;31
2023/11/07 05:40:23;;;;;;;2.72;1.35;;;8.60;99.90;;;;;;2603068;54;20179;31
2023/11/07 05:42:58;;;;;;;3.28;1.42;;;8.60;99.90;;;;;;2603129;54;20806;31
2023/11/07 05:45:36;;;;;;;2.15;1.30;;;8.60;99.90;;;;;;2603020;54;20916;31
2023/11/07 05:48:10;;;;;;;2.05;1.15;;;8.60;99.90;;;;;;2603071;54;20085;31
2023/11/07 05:50:45;;;;;;;2.55;1.15;;;8.60;99.90;;;;;;2621370;47;20031;31
2023/11/07 05:53:19;;;;;;;5.00;1.10;;;8.60;99.90;;;;;;2602915;54;20873;31
2023/11/07 05:55:54;;;;;;;2.63;0.90;;;8.60;99.90;;;;;;2603040;54;20920;31
2023/11/07 05:58:29;;;;;;;2.70;1.20;;;8.60;99.90;;;;;;2602853;54;20097;31
2023/11/07 06:01:09;;;;;;;3.60;1.40;;;8.60;99.90;;;;;;2602772;54;20046;31
2023/11/07 06:03:45;;;;;;;2.20;1.00;;;8.60;99.90;;;;;;2621108;47;20855;31
2023/11/07 06:06:19;;;;;;;2.00;0.90;;;8.60;99.90;;;;;;2602692;54;20944;31
2023/11/07 06:08:54;;;;;;;1.65;0.90;;;8.70;99.90;;;;;;2701249;39;21538;31
2023/11/07 06:11:29;;;;;;;2.00;0.93;;;8.60;99.90;;;;;;2602825;54;20031;31
2023/11/07 06:14:05;;;;;;;1.85;1.15;;;8.60;99.90;;;;;;2602677;54;20081;31
2023/11/07 06:16:44;;;;;;;;;;;8.70;99.90;;;;;;2620907;47;20814;31
2023/11/07 06:19:19;;;;;;;2.40;1.08;;;8.70;99.90;;;;;;2621360;47;19935;31
2023/11/07 06:21:54;;;;;;;2.17;1.63;;;8.70;99.90;;;;;;2620955;47;20915;31
2023/11/07 06:24:29;;;;;;;5.60;1.35;;;8.80;99.90;;;;;;2603131;54;20034;31
2023/11/07 06:27:07;;;;;;;3.45;1.50;;;8.90;99.90;;;;;;2603748;54;20093;31
2023/11/07 06:29:46;;;;;;;2.25;1.10;;;8.90;99.90;;;;;;2603708;54;20308;31
2023/11/07 06:32:24;;;;;;;1.98;1.10;;;8.90;99.90;;;;;;2702075;39;20493;31
2023/11/07 06:34:58;;;;;;;3.60;1.10;;;8.90;99.90;;;;;;2603805;54;20891;31
2023/11/07 06:37:33;;;;;;;1.50;0.90;;;9.00;99.90;;;;;;2603559;54;20057;31
2023/11/07 06:40:13;;;;;;;1.52;0.90;;;9.00;99.90;;;;;;2603729;54;20037;31
2023/11/07 06:42:53;;;;;;;1.45;0.80;;;9.00;99.90;;;;;;2603568;54;20026;31
2023/11/07 06:45:28;;;;;;;;;;;9.10;99.90;;;;;;2603848;54;20027;31
2023/11/07 06:48:05;;;;;;;2.17;1.20;;;9.20;99.90;;;;;;2603714;54;19989;31
2023/11/07 06:50:41;;;;;;;1.50;1.20;;;9.20;99.90;;;;;;2603571;54;20033;31
2023/11/07 06:53:15;;;;;;;1.73;0.90;;;9.30;99.90;;;;;;2603713;54;20026;31
2023/11/07 06:55:51;;;;;;;2.40;0.95;;;9.50;99.90;;;;;;2603367;54;20925;31
2023/11/07 06:58:25;;;;;;;1.43;0.73;;;9.80;99.90;;;;;;2603514;54;20921;31
2023/11/07 07:00:59;;;;;;;1.13;0.70;;;10.20;99.90;;;;;;2603402;54;20917;31
2023/11/07 07:03:37;;;;;;;2.97;0.75;;;10.70;99.90;;;;;;2621673;46;20857;31
2023/11/07 07:06:13;;;;;;;1.73;0.80;;;11.30;99.90;;;;;;2621860;46;20034;31
2023/11/07 07:08:47;;;;;;;1.70;0.65;;;12.10;94.60;;;;;;2603611;54;20891;31
2023/11/07 07:11:22;;;;;;;2.05;0.80;;;12.70;89.00;;;;;;2622137;46;19934;31
2023/11/07 07:13:58;;;;;;;1.42;0.65;;;12.90;67.50;;;;;;2603560;54;20026;31
2023/11/07 07:16:34;;;;;;;1.95;0.57;;;13.00;64.50;;;;;;2621745;46;20030;31
2023/11/07 07:19:17;;;;;;;1.35;0.70;;;12.90;60.60;;;;;;2603503;54;20037;31
2023/11/07 07:21:53;;;;;;;3.33;0.85;;;12.80;60.60;;;;;;2603540;54;20876;31
2023/11/07 07:24:29;;;;;;;2.93;0.60;;;12.80;60.40;;;;;;2702138;39;20524;31
2023/11/07 07:27:08;;;;;;;0.82;0.40;;;12.80;60.50;;;;;;2603467;54;20907;31
2023/11/07 07:29:42;;;;;;;0.70;0.45;;;13.10;64.70;;;;;;2603461;54;20825;31
2023/11/07 07:32:19;;;;;;;2.40;0.60;;;13.60;56.40;;;;;;2622022;46;20026;31
2023/11/07 07:34:56;;;;;;;3.60;0.50;;;14.10;54.80;;;;;;2622371;46;20022;31
2023/11/07 07:37:33;;;;;;;1.10;0.40;;;14.60;50.10;;;;;;2621947;46;20034;31
2023/11/07 07:40:14;;;;;;;0.82;0.40;;;15.20;44.50;;;;;;2603454;54;20041;31
2023/11/07 07:42:49;;;;;;;1.38;0.40;;;15.70;35.40;;;;;;2603408;54;20026;31
2023/11/07 07:45:26;;;;;;;;;;;15.90;30.30;;;;;;2720636;39;20488;31
2023/11/07 07:48:02;;;;;;;2.38;0.50;;;16.10;35.90;;;;;;2621895;46;19934;31
2023/11/07 07:50:42;;;;;;;2.25;0.50;;;16.20;22.50;;;;;;2603406;54;19935;31
2023/11/07 07:53:20;;;;;;;2.45;0.40;;;16.50;21.00;;;;;;2603359;54;20027;31
2023/11/07 07:55:58;;;;;;;0.90;0.22;;;16.70;20.60;;;;;;2603393;54;20039;31
2023/11/07 07:58:34;;;;;;;0.98;0.40;;;17.00;16.90;;;;;;2603135;54;20026;31
2023/11/07 08:01:10;;;;;;;1.40;0.50;;;17.20;13.60;;;;;;2603589;54;20026;31
2023/11/07 08:03:45;;;;;;;0.55;0.25;;;17.20;2.80;;;;;;2603337;54;20030;31
2023/11/07 08:06:22;;;;;;;1.88;0.40;;;17.40;6.40;;;;;;2621659;46;20054;31
2023/11/07 08:08:59;;;;;;;5.50;1.70;;;17.40;8.50;;;;;;2603613;54;20034;31
2023/11/07 08:11:34;;;;;;;1.35;0.40;;;17.40;1.50;;;;;;2603525;54;20026;31
2023/11/07 08:14:10;;;;;;;0.90;0.30;;;17.50;1.00;;;;;;2772981;31;25094;31
2023/11/07 08:16:45;;;;;;;;;;;17.70;1.00;;;;;;2603408;54;20053;31
2023/11/07 08:19:24;;;;;;;0.70;0.32;;;17.80;1.00;;;;;;2603326;54;19965;31
2023/11/07 08:22:06;;;;;;;0.55;0.20;;;17.90;1.00;;;;;;2603388;54;20033;31
2023/11/07 08:24:42;;;;;;;1.15;0.65;;;17.70;1.00;;;;;;2603518;54;20183;31
2023/11/07 08:27:16;;;;;;;1.83;0.50;;;17.40;1.00;;;;;;2603360;54;20030;31
2023/11/07 08:29:52;;;;;;;1.45;0.40;;;17.20;1.00;;;;;;2603633;54;20038;31
2023/11/07 08:32:29;;;;;;;1.38;0.35;;;17.00;1.00;;;;;;2603362;54;20870;31
2023/11/07 08:35:06;;;;;;;1.58;0.40;;;16.70;1.00;;;;;;2603337;54;20026;31
2023/11/07 08:37:47;;;;;;;1.25;0.38;;;16.50;1.00;;;;;;2603336;54;20030;31
2023/11/07 08:40:22;;;;;;;2.10;0.40;;;16.20;1.60;;;;;;2603227;54;20701;31
2023/11/07 08:42:58;;;;;;;1.77;0.30;;;16.00;8.60;;;;;;2602990;54;20049;31
2023/11/07 08:45:35;;;;;;;1.20;0.47;;;15.70;8.60;;;;;;2603433;54;20137;31
2023/11/07 08:48:10;;;;;;;1.08;0.35;;;15.40;8.10;;;;;;2621583;46;20097;31
2023/11/07 08:50:45;;;;;;;1.90;0.50;;;15.30;14.10;;;;;;2603356;54;20586;31
2023/11/07 08:53:23;;;;;;;1.30;0.50;;;15.10;18.00;;;;;;2622028;46;20057;31
2023/11/07 08:55:58;;;;;;;0.90;0.30;;;14.90;19.70;;;;;;2603134;54;20145;31
2023/11/07 08:58:34;;;;;;;1.83;0.50;;;14.70;22.30;;;;;;2603245;54;20844;31
2023/11/07 09:01:12;;;;;;;1.20;0.40;;;14.70;26.80;;;;;;2603112;54;20815;31
2023/11/07 09:03:48;;;;;;;3.45;0.40;;;14.80;36.50;;;;;;2621731;46;20089;31
2023/11/07 09:06:24;;;;;;;1.23;0.45;;;15.00;29.70;;;;;;2603324;54;20099;31
2023/11/07 09:09:01;;;;;;;0.63;0.35;;;15.20;29.10;;;;;;2603079;54;20026;31
2023/11/07 09:11:37;;;;;;;0.57;0.40;;;15.20;26.80;;;;;;2603199;54;20034;31
2023/11/07 09:14:12;;;;;;;2.40;0.33;;;15.30;24.50;;;;;;2621720;46;20096;31
2023/11/07 09:16:48;;;;;;;0.73;0.40;;;15.30;23.10;;;;;;2621436;46;20908;31
2023/11/07 09:19:23;;;;;;;0.93;0.28;;;15.30;24.90;;;;;;2603259;54;20942;31
2023/11/07 09:22:00;;;;;;;0.90;0.40;;;15.30;24.10;;;;;;2603056;54;20875;31
2023/11/07 09:24:38;;;;;;;1.85;0.60;;;15.20;24.30;;;;;;2603250;54;20030;31
2023/11/07 09:27:13;;;;;;;1.35;0.30;;;15.20;24.40;;;;;;2603266;54;20814;31
2023/11/07 09:29:48;;;;;;;1.75;0.40;;;15.10;21.10;;;;;;2621038;46;20087;31
2023/11/07 09:32:22;;;;;;;1.75;0.50;;;15.00;22.60;;;;;;2602832;54;20813;31
2023/11/07 09:34:58;;;;;;;3.58;0.30;;;15.00;23.10;;;;;;2603152;54;20047;31
2023/11/07 09:37:36;;;;;;;1.27;0.50;;;14.80;21.80;;;;;;2602923;54;20044;31
2023/11/07 09:40:17;;;;;;;1.20;0.20;;;14.70;25.70;;;;;;2603198;54;20026;31
2023/11/07 09:43:01;;;;;;;1.40;0.40;;;14.60;23.90;;;;;;2603011;54;25042;31
2023/11/07 09:45:37;;;;;;;1.55;0.40;;;14.60;25.80;;;;;;2621233;47;20052;31
2023/11/07 09:48:13;;;;;;;;;;;14.50;27.00;;;;;;2603116;54;20033;31
2023/11/07 09:50:48;;;;;;;1.52;0.45;;;14.60;29.00;;;;;;2603082;54;19940;31
2023/11/07 09:53:23;;;;;;;2.00;0.57;;;14.60;29.60;;;;;;2603207;54;19997;31
2023/11/07 09:56:01;;;;;;;1.50;0.63;;;14.60;30.00;;;;;;2602841;54;20141;31
2023/11/07 09:58:36;;;;;;;1.93;0.73;;;14.70;29.70;;;;;;2602890;54;20859;31
2023/11/07 10:01:11;;;;;;;0.70;0.50;;;14.70;27.40;;;;;;2603715;54;21135;31
2023/11/07 10:03:50;;;;;;;2.50;0.55;;;14.70;28.40;;;;;;2603890;54;20681;31
2023/11/07 10:06:26;;;;;;;0.90;0.45;;;14.70;28.40;;;;;;2702340;39;20497;31
2023/11/07 10:09:00;;;;;;;1.30;0.40;;;14.70;30.30;;;;;;2622404;46;20802;31
2023/11/07 10:11:49;;;;;;;1.35;0.50;;;14.70;24.80;;;;;;2621764;46;20026;31
2023/11/07 10:14:26;;;;;;;2.17;0.57;;;14.70;27.60;;;;;;2622360;46;20919;31
2023/11/07 10:17:03;;;;;;;1.65;0.50;;;14.80;29.00;;;;;;2603577;54;20030;31
2023/11/07 10:19:38;;;;;;;0.60;0.40;;;14.80;25.80;;;;;;2603755;54;20908;31
2023/11/07 10:22:12;;;;;;;1.23;0.50;;;14.90;27.90;;;;;;2603674;54;20037;31
2023/11/07 10:24:48;;;;;;;2.72;0.60;;;15.00;28.60;;;;;;2603629;54;20053;31
2023/11/07 10:27:30;;;;;;;1.63;0.47;;;14.90;28.00;;;;;;2603684;54;20027;31
2023/11/07 10:30:07;;;;;;;2.00;0.57;;;14.90;25.70;;;;;;2702349;39;20488;31
2023/11/07 10:32:49;;;;;;;2.17;0.50;;;14.90;27.30;;;;;;2603471;54;20907;31
2023/11/07 10:35:25;;;;;;;2.20;0.70;;;14.80;23.20;;;;;;2603497;54;20801;31
2023/11/07 10:38:00;;;;;;;1.85;0.50;;;14.70;24.20;;;;;;2622135;46;20778;31
2023/11/07 10:40:41;;;;;;;2.40;0.40;;;14.70;23.90;;;;;;2603774;54;20553;31
2023/11/07 10:43:35;;;;;;;1.52;0.35;;;14.70;25.00;;;;;;2604005;54;20027;31
2023/11/07 10:46:11;;;;;;;1.25;0.60;;;14.70;26.30;;;;;;2603527;54;20112;31
2023/11/07 10:48:48;;;;;;;1.73;0.40;;;14.80;24.70;;;;;;2720959;39;20465;31
2023/11/07 10:51:23;;;;;;;1.20;0.40;;;14.80;25.00;;;;;;2603291;54;20234;31
2023/11/07 10:53:59;;;;;;;0.73;0.40;;;14.80;24.30;;;;;;2603546;54;20008;31
2023/11/07 10:56:36;;;;;;;0.70;0.30;;;14.80;22.10;;;;;;2603432;54;20667;31
2023/11/07 10:59:16;;;;;;;1.27;0.30;;;14.80;20.80;;;;;;2621938;46;20037;31
2023/11/07 11:01:53;;;;;;;2.67;0.32;;;14.70;19.80;;;;;;2603585;54;20145;31
2023/11/07 11:04:29;;;;;;;1.55;0.40;;;14.70;18.20;;;;;;2621783;46;20821;31
2023/11/07 11:07:06;;;;;;;0.70;0.30;;;14.70;20.50;;;;;;2603541;54;19942;31
2023/11/07 11:09:42;;;;;;;0.67;0.37;;;14.70;17.70;;;;;;2603560;54;20831;31
2023/11/07 11:12:16;;;;;;;0.73;0.20;;;14.70;17.10;;;;;;2603400;54;22474;31
2023/11/07 11:36:59;;;;;;;3.75;0.20;;;14.60;5.30;;;;;;2602515;54;19938;31
2023/11/07 11:39:45;;;;;;;0.98;0.20;;;14.60;7.00;;;;;;2603471;54;20901;31
2023/11/07 11:42:20;;;;;;;1.50;0.40;;;14.60;10.00;;;;;;2603674;54;20026;31
2023/11/07 11:45:27;;;;;;;2.00;0.40;;;14.60;10.90;;;;;;2621791;46;20140;31
2023/11/07 11:48:21;;;;;;;3.03;0.95;;;14.70;9.00;;;;;;2603649;54;20611;31
2023/11/07 11:51:26;;;;;;;0.77;0.38;;;14.70;9.20;;;;;;2603463;54;20037;31
2023/11/07 11:54:03;;;;;;;0.85;0.30;;;14.60;9.40;;;;;;2603466;54;20034;31
2023/11/07 11:56:38;;;;;;;2.33;0.70;;;14.60;10.50;;;;;;2603399;54;20033;31
2023/11/07 11:59:16;;;;;;;2.20;0.75;;;14.60;8.70;;;;;;2603414;54;20026;31
2023/11/07 12:01:52;;;;;;;3.33;0.40;;;14.50;8.60;;;;;;2621661;46;20116;31
2023/11/07 12:04:35;;;;;;;1.45;0.40;;;14.50;13.90;;;;;;2622392;46;20801;31
2023/11/07 12:07:24;;;;;;;1.10;0.40;;;14.60;11.50;;;;;;2603499;54;20036;31
2023/11/07 12:10:08;;;;;;;2.20;0.45;;;14.60;15.50;;;;;;2622135;46;20049;31
2023/11/07 12:12:44;;;;;;;1.97;0.40;;;14.70;11.40;;;;;;2603522;54;20034;31
2023/11/07 12:15:18;;;;;;;1.13;0.40;;;14.70;13.60;;;;;;2603431;54;20648;31
2023/11/07 12:17:53;;;;;;;1.90;0.45;;;14.70;15.70;;;;;;2621576;46;20872;31
2023/11/07 12:20:28;;;;;;;1.60;0.68;;;14.70;13.10;;;;;;2621957;46;20081;31
2023/11/07 12:23:04;;;;;;;4.60;0.57;;;14.70;15.40;;;;;;2621372;46;20671;31
2023/11/07 12:25:50;;;;;;;2.00;0.70;;;14.70;14.00;;;;;;2603445;54;20034;31
2023/11/07 12:28:25;;;;;;;;;;;14.70;13.90;;;;;;2603553;54;20242;31
2023/11/07 12:30:59;;;;;;;1.00;0.40;;;14.60;12.10;;;;;;2603593;54;19942;31
2023/11/07 12:33:43;;;;;;;1.50;0.45;;;14.50;14.30;;;;;;2622053;46;20121;31
2023/11/07 12:36:18;;;;;;;1.00;0.63;;;14.40;13.40;;;;;;2622230;46;20024;31
2023/11/07 12:38:53;;;;;;;2.13;0.40;;;14.40;13.90;;;;;;2603465;54;20042;31
2023/11/07 12:41:32;;;;;;;1.50;0.50;;;14.40;15.30;;;;;;2702062;39;20473;31
2023/11/07 12:44:16;;;;;;;2.03;0.50;;;14.30;16.00;;;;;;2603256;54;20030;31
2023/11/07 12:46:51;;;;;;;2.33;0.50;;;14.30;15.90;;;;;;2603576;54;20121;31
2023/11/07 12:49:27;;;;;;;1.47;0.50;;;14.20;13.50;;;;;;2621945;46;20830;31
2023/11/07 12:52:02;;;;;;;1.67;0.40;;;14.20;14.40;;;;;;2701842;39;20663;31
2023/11/07 12:54:36;;;;;;;0.68;0.40;;;14.20;15.10;;;;;;2702019;39;21042;31
2023/11/07 12:57:13;;;;;;;0.90;0.40;;;14.20;15.50;;;;;;2603451;54;20022;31
2023/11/07 13:00:00;;;;;;;1.52;0.40;;;14.20;12.70;;;;;;2603306;54;20942;31
2023/11/07 13:02:34;;;;;;;1.35;0.30;;;14.20;9.50;;;;;;2602518;54;20395;31
2023/11/07 13:05:10;;;;;;;1.17;0.35;;;14.20;12.90;;;;;;2620681;46;20058;31
2023/11/07 13:07:45;;;;;;;0.70;0.30;;;14.20;13.50;;;;;;2602814;54;20093;31
2023/11/07 13:10:20;;;;;;;0.70;0.40;;;14.30;14.00;;;;;;2603221;54;20026;31
2023/11/07 13:12:57;;;;;;;2.90;0.30;;;14.30;12.00;;;;;;2603046;54;20828;31
2023/11/07 13:15:32;;;;;;;1.25;0.40;;;14.30;14.00;;;;;;2603230;54;20885;31
2023/11/07 13:18:08;;;;;;;1.70;0.40;;;14.30;9.50;;;;;;2603203;54;20023;31
2023/11/07 13:20:45;;;;;;;;;;;14.20;8.40;;;;;;2621857;46;20129;31
2023/11/07 13:23:19;;;;;;;0.50;0.20;;;14.20;8.30;;;;;;2621672;46;19942;31
2023/11/07 13:25:53;;;;;;;0.88;0.30;;;14.20;8.30;;;;;;2603120;54;20628;31
2023/11/07 13:28:31;;;;;;;2.15;0.45;;;14.10;10.60;;;;;;2602971;54;20854;31
2023/11/07 13:31:07;;;;;;;0.77;0.13;;;14.10;10.70;;;;;;2603176;54;20018;31
2023/11/07 13:33:44;;;;;;;;;;;14.10;9.50;;;;;;2621678;46;20887;31
2023/11/07 13:36:25;;;;;;;2.08;0.55;;;14.10;11.50;;;;;;2602866;54;19938;31
2023/11/07 13:39:03;;;;;;;0.30;0.20;;;14.00;10.80;;;;;;2603225;54;20890;31
2023/11/07 13:41:37;;;;;;;;;;;14.00;11.60;;;;;;2621876;47;20030;31
2023/11/07 13:44:15;;;;;;;1.33;0.30;;;13.90;12.50;;;;;;2603300;54;19941;31
2023/11/07 13:46:50;;;;;;;0.52;0.28;;;13.90;13.10;;;;;;2603190;54;19983;31
2023/11/07 13:49:27;;;;;;;0.85;0.30;;;13.90;14.60;;;;;;2602833;54;20026;31
2023/11/07 13:52:03;;;;;;;1.08;0.38;;;13.80;14.00;;;;;;2602873;54;20042;31
2023/11/07 13:54:38;;;;;;;0.70;0.30;;;13.80;14.70;;;;;;2603181;54;20819;31
2023/11/07 13:57:12;;;;;;;2.60;0.40;;;13.80;14.90;;;;;;2621214;47;20255;31
2023/11/07 13:59:51;;;;;;;1.45;0.70;;;13.70;15.80;;;;;;2602815;54;20596;31
2023/11/07 14:02:28;;;;;;;1.30;0.47;;;13.70;15.60;;;;;;2603043;54;20026;31
2023/11/07 14:05:05;;;;;;;1.17;0.40;;;13.70;13.80;;;;;;2621427;47;20046;31
2023/11/07 14:07:39;;;;;;;1.38;0.43;;;13.70;15.60;;;;;;2602974;54;20128;31
2023/11/07 14:10:17;;;;;;;1.30;0.30;;;13.70;17.60;;;;;;2602981;54;20029;31
2023/11/07 14:12:55;;;;;;;1.38;0.40;;;13.70;18.40;;;;;;2602943;54;20038;31
2023/11/07 14:15:35;;;;;;;0.50;0.20;;;13.70;17.30;;;;;;2603069;54;20037;31